sensor_id;sensor_type;location;lat;lon;timestamp;temperature;humidity
19536;HTU21D;9913;51.168;4.124;2022-09-09T00:00:46;14.18;92.69
19536;HTU21D;9913;51.168;4.124;2022-09-09T00:03:17;14.18;92.18
19536;HTU21D;9913;51.168;4.124;2022-09-09T00:05:52;14.19;92.53
19536;HTU21D;9913;51.168;4.124;2022-09-09T00:08:27;14.14;92.24
19536;HTU21D;9913;51.168;4.124;2022-09-09T00:11:03;14.13;92.38
19536;HTU21D;9913;51.168;4.124;2022-09-09T00:13:37;14.12;92.94
19536;HTU21D;9913;51.168;4.124;2022-09-09T00:16:14;14.14;93.03
19536;HTU21D;9913;51.168;4.124;2022-09-09T00:18:52;14.14;93.09
19536;HTU21D;9913;51.168;4.124;2022-09-09T00:21:25;14.14;92.90
19536;HTU21D;9913;51.168;4.124;2022-09-09T00:24:01;14.06;92.36
19536;HTU21D;9913;51.168;4.124;2022-09-09T00:26:39;14.15;92.85
19536;HTU21D;9913;51.168;4.124;2022-09-09T00:29:14;14.09;92.55
19536;HTU21D;9913;51.168;4.124;2022-09-09T00:31:47;14.10;92.59
19536;HTU21D;9913;51.168;4.124;2022-09-09T00:34:19;14.18;92.34
19536;HTU21D;9913;51.168;4.124;2022-09-09T00:36:50;14.10;91.89
19536;HTU21D;9913;51.168;4.124;2022-09-09T00:39:32;14.15;91.83
19536;HTU21D;9913;51.168;4.124;2022-09-09T00:42:13;14.07;91.86
19536;HTU21D;9913;51.168;4.124;2022-09-09T00:44:51;14.04;92.03
19536;HTU21D;9913;51.168;4.124;2022-09-09T00:47:40;14.11;92.46
19536;HTU21D;9913;51.168;4.124;2022-09-09T00:50:28;14.14;92.08
19536;HTU21D;9913;51.168;4.124;2022-09-09T00:53:10;14.14;92.04
19536;HTU21D;9913;51.168;4.124;2022-09-09T00:55:45;14.07;91.36
19536;HTU21D;9913;51.168;4.124;2022-09-09T00:58:15;14.04;91.17
19536;HTU21D;9913;51.168;4.124;2022-09-09T01:00:45;14.10;91.24
19536;HTU21D;9913;51.168;4.124;2022-09-09T01:03:25;14.05;91.34
19536;HTU21D;9913;51.168;4.124;2022-09-09T01:06:01;14.04;91.66
19536;HTU21D;9913;51.168;4.124;2022-09-09T01:08:42;13.98;91.37
19536;HTU21D;9913;51.168;4.124;2022-09-09T01:11:20;13.99;91.97
19536;HTU21D;9913;51.168;4.124;2022-09-09T01:13:53;14.04;92.23
19536;HTU21D;9913;51.168;4.124;2022-09-09T01:16:29;14.05;92.08
19536;HTU21D;9913;51.168;4.124;2022-09-09T01:19:00;13.94;91.13
19536;HTU21D;9913;51.168;4.124;2022-09-09T01:21:38;13.94;91.89
19536;HTU21D;9913;51.168;4.124;2022-09-09T01:24:22;13.89;91.69
19536;HTU21D;9913;51.168;4.124;2022-09-09T01:27:17;13.91;91.86
19536;HTU21D;9913;51.168;4.124;2022-09-09T01:29:46;13.85;91.55
19536;HTU21D;9913;51.168;4.124;2022-09-09T01:32:39;13.92;91.98
19536;HTU21D;9913;51.168;4.124;2022-09-09T01:35:11;13.95;92.47
19536;HTU21D;9913;51.168;4.124;2022-09-09T01:37:41;13.89;92.05
19536;HTU21D;9913;51.168;4.124;2022-09-09T01:40:09;13.93;91.92
19536;HTU21D;9913;51.168;4.124;2022-09-09T01:42:40;13.88;91.88
19536;HTU21D;9913;51.168;4.124;2022-09-09T01:45:10;13.90;91.85
19536;HTU21D;9913;51.168;4.124;2022-09-09T01:47:39;13.93;92.15
19536;HTU21D;9913;51.168;4.124;2022-09-09T01:50:20;13.92;91.98
19536;HTU21D;9913;51.168;4.124;2022-09-09T01:52:53;13.92;91.85
19536;HTU21D;9913;51.168;4.124;2022-09-09T01:55:29;13.92;91.61
19536;HTU21D;9913;51.168;4.124;2022-09-09T01:58:19;13.88;91.01
19536;HTU21D;9913;51.168;4.124;2022-09-09T02:00:59;13.89;91.51
19536;HTU21D;9913;51.168;4.124;2022-09-09T02:03:29;13.95;90.98
19536;HTU21D;9913;51.168;4.124;2022-09-09T02:06:15;13.99;90.98
19536;HTU21D;9913;51.168;4.124;2022-09-09T02:08:52;13.94;91.20
19536;HTU21D;9913;51.168;4.124;2022-09-09T02:11:23;13.96;91.30
19536;HTU21D;9913;51.168;4.124;2022-09-09T02:14:03;14.00;90.93
19536;HTU21D;9913;51.168;4.124;2022-09-09T02:16:39;14.00;91.44
19536;HTU21D;9913;51.168;4.124;2022-09-09T02:19:13;14.03;91.02
19536;HTU21D;9913;51.168;4.124;2022-09-09T02:21:59;14.05;90.57
19536;HTU21D;9913;51.168;4.124;2022-09-09T02:24:30;14.05;90.47
19536;HTU21D;9913;51.168;4.124;2022-09-09T02:27:21;14.03;90.76
19536;HTU21D;9913;51.168;4.124;2022-09-09T02:29:53;14.04;90.84
19536;HTU21D;9913;51.168;4.124;2022-09-09T02:32:46;14.05;90.82
19536;HTU21D;9913;51.168;4.124;2022-09-09T02:35:19;14.06;90.80
19536;HTU21D;9913;51.168;4.124;2022-09-09T02:37:50;14.07;91.11
19536;HTU21D;9913;51.168;4.124;2022-09-09T02:40:20;14.05;91.22
19536;HTU21D;9913;51.168;4.124;2022-09-09T02:42:56;14.05;91.27
19536;HTU21D;9913;51.168;4.124;2022-09-09T02:45:33;14.10;90.75
19536;HTU21D;9913;51.168;4.124;2022-09-09T02:48:08;14.12;90.62
19536;HTU21D;9913;51.168;4.124;2022-09-09T02:50:48;14.14;90.81
19536;HTU21D;9913;51.168;4.124;2022-09-09T02:53:24;14.14;90.82
19536;HTU21D;9913;51.168;4.124;2022-09-09T02:55:59;14.14;90.79
19536;HTU21D;9913;51.168;4.124;2022-09-09T02:58:32;14.14;90.82
19536;HTU21D;9913;51.168;4.124;2022-09-09T03:01:06;14.13;90.54
19536;HTU21D;9913;51.168;4.124;2022-09-09T03:03:36;14.15;90.79
19536;HTU21D;9913;51.168;4.124;2022-09-09T03:06:09;14.18;91.10
19536;HTU21D;9913;51.168;4.124;2022-09-09T03:08:39;14.15;91.27
19536;HTU21D;9913;51.168;4.124;2022-09-09T03:11:16;14.19;91.15
19536;HTU21D;9913;51.168;4.124;2022-09-09T03:13:44;14.17;90.24
19536;HTU21D;9913;51.168;4.124;2022-09-09T03:16:15;14.20;90.60
19536;HTU21D;9913;51.168;4.124;2022-09-09T03:18:47;14.18;90.83
19536;HTU21D;9913;51.168;4.124;2022-09-09T03:21:16;14.15;90.63
19536;HTU21D;9913;51.168;4.124;2022-09-09T03:23:45;14.18;90.33
19536;HTU21D;9913;51.168;4.124;2022-09-09T03:26:14;14.22;90.47
19536;HTU21D;9913;51.168;4.124;2022-09-09T03:28:45;14.24;90.40
19536;HTU21D;9913;51.168;4.124;2022-09-09T03:31:18;14.25;90.73
19536;HTU21D;9913;51.168;4.124;2022-09-09T03:33:47;14.20;90.50
19536;HTU21D;9913;51.168;4.124;2022-09-09T03:36:18;14.23;90.74
19536;HTU21D;9913;51.168;4.124;2022-09-09T03:38:46;14.20;90.63
19536;HTU21D;9913;51.168;4.124;2022-09-09T03:41:14;14.19;90.96
19536;HTU21D;9913;51.168;4.124;2022-09-09T03:43:43;14.19;91.14
19536;HTU21D;9913;51.168;4.124;2022-09-09T03:46:11;14.19;90.56
19536;HTU21D;9913;51.168;4.124;2022-09-09T03:48:41;14.21;90.71
19536;HTU21D;9913;51.168;4.124;2022-09-09T03:51:10;14.20;91.00
19536;HTU21D;9913;51.168;4.124;2022-09-09T03:53:38;14.22;90.34
19536;HTU21D;9913;51.168;4.124;2022-09-09T03:56:07;14.20;90.28
19536;HTU21D;9913;51.168;4.124;2022-09-09T03:58:37;14.20;90.20
19536;HTU21D;9913;51.168;4.124;2022-09-09T04:01:09;14.18;90.75
19536;HTU21D;9913;51.168;4.124;2022-09-09T04:03:38;14.17;89.93
19536;HTU21D;9913;51.168;4.124;2022-09-09T04:06:10;14.19;89.79
19536;HTU21D;9913;51.168;4.124;2022-09-09T04:08:42;14.14;90.38
19536;HTU21D;9913;51.168;4.124;2022-09-09T04:11:13;14.13;90.64
19536;HTU21D;9913;51.168;4.124;2022-09-09T04:13:43;14.14;90.98
19536;HTU21D;9913;51.168;4.124;2022-09-09T04:16:13;14.11;91.00
19536;HTU21D;9913;51.168;4.124;2022-09-09T04:18:43;14.13;90.74
19536;HTU21D;9913;51.168;4.124;2022-09-09T04:21:15;14.13;90.43
19536;HTU21D;9913;51.168;4.124;2022-09-09T04:23:44;14.17;90.47
19536;HTU21D;9913;51.168;4.124;2022-09-09T04:26:13;14.19;90.41
19536;HTU21D;9913;51.168;4.124;2022-09-09T04:28:43;14.17;90.50
19536;HTU21D;9913;51.168;4.124;2022-09-09T04:31:19;14.19;90.51
19536;HTU21D;9913;51.168;4.124;2022-09-09T04:33:52;14.17;90.24
19536;HTU21D;9913;51.168;4.124;2022-09-09T04:36:23;14.14;90.35
19536;HTU21D;9913;51.168;4.124;2022-09-09T04:38:56;14.19;90.04
19536;HTU21D;9913;51.168;4.124;2022-09-09T04:41:25;14.19;90.20
19536;HTU21D;9913;51.168;4.124;2022-09-09T04:43:54;14.19;90.33
19536;HTU21D;9913;51.168;4.124;2022-09-09T04:46:23;14.19;90.36
19536;HTU21D;9913;51.168;4.124;2022-09-09T04:48:52;14.17;90.24
19536;HTU21D;9913;51.168;4.124;2022-09-09T04:51:24;14.17;90.34
19536;HTU21D;9913;51.168;4.124;2022-09-09T04:53:53;14.19;90.68
19536;HTU21D;9913;51.168;4.124;2022-09-09T04:56:22;14.20;90.57
19536;HTU21D;9913;51.168;4.124;2022-09-09T04:58:56;14.20;90.41
19536;HTU21D;9913;51.168;4.124;2022-09-09T05:01:38;14.23;90.31
19536;HTU21D;9913;51.168;4.124;2022-09-09T05:04:06;14.26;90.08
19536;HTU21D;9913;51.168;4.124;2022-09-09T05:06:36;14.32;89.85
19536;HTU21D;9913;51.168;4.124;2022-09-09T05:09:05;14.33;89.89
19536;HTU21D;9913;51.168;4.124;2022-09-09T05:11:34;14.37;89.42
19536;HTU21D;9913;51.168;4.124;2022-09-09T05:14:24;14.44;89.15
19536;HTU21D;9913;51.168;4.124;2022-09-09T05:16:52;14.48;88.80
19536;HTU21D;9913;51.168;4.124;2022-09-09T05:19:22;14.50;88.60
19536;HTU21D;9913;51.168;4.124;2022-09-09T05:21:54;14.54;88.69
19536;HTU21D;9913;51.168;4.124;2022-09-09T05:24:31;14.60;88.38
19536;HTU21D;9913;51.168;4.124;2022-09-09T05:27:02;14.60;88.62
19536;HTU21D;9913;51.168;4.124;2022-09-09T05:29:33;14.62;88.31
19536;HTU21D;9913;51.168;4.124;2022-09-09T05:32:03;14.63;89.12
19536;HTU21D;9913;51.168;4.124;2022-09-09T05:34:34;14.58;88.60
19536;HTU21D;9913;51.168;4.124;2022-09-09T05:37:06;14.56;88.75
19536;HTU21D;9913;51.168;4.124;2022-09-09T05:39:36;14.60;88.42
19536;HTU21D;9913;51.168;4.124;2022-09-09T05:42:05;14.63;88.74
19536;HTU21D;9913;51.168;4.124;2022-09-09T05:44:34;14.62;88.10
19536;HTU21D;9913;51.168;4.124;2022-09-09T05:47:02;14.64;88.33
19536;HTU21D;9913;51.168;4.124;2022-09-09T05:49:31;14.63;88.30
19536;HTU21D;9913;51.168;4.124;2022-09-09T05:51:59;14.65;88.28
19536;HTU21D;9913;51.168;4.124;2022-09-09T05:54:32;14.65;87.93
19536;HTU21D;9913;51.168;4.124;2022-09-09T05:57:01;14.65;87.95
19536;HTU21D;9913;51.168;4.124;2022-09-09T05:59:30;14.72;87.93
19536;HTU21D;9913;51.168;4.124;2022-09-09T06:02:00;14.73;87.70
19536;HTU21D;9913;51.168;4.124;2022-09-09T06:04:33;14.78;87.49
19536;HTU21D;9913;51.168;4.124;2022-09-09T06:07:03;14.78;87.38
19536;HTU21D;9913;51.168;4.124;2022-09-09T06:09:33;14.75;87.53
19536;HTU21D;9913;51.168;4.124;2022-09-09T06:12:02;14.78;87.28
19536;HTU21D;9913;51.168;4.124;2022-09-09T06:14:34;14.82;86.93
19536;HTU21D;9913;51.168;4.124;2022-09-09T06:17:02;14.82;87.17
19536;HTU21D;9913;51.168;4.124;2022-09-09T06:19:31;14.87;87.01
19536;HTU21D;9913;51.168;4.124;2022-09-09T06:22:00;14.96;87.34
19536;HTU21D;9913;51.168;4.124;2022-09-09T06:24:30;14.97;87.18
19536;HTU21D;9913;51.168;4.124;2022-09-09T06:27:03;15.03;86.41
19536;HTU21D;9913;51.168;4.124;2022-09-09T06:29:34;15.25;86.25
19536;HTU21D;9913;51.168;4.124;2022-09-09T06:32:03;15.42;85.89
19536;HTU21D;9913;51.168;4.124;2022-09-09T06:34:31;15.49;85.67
19536;HTU21D;9913;51.168;4.124;2022-09-09T06:37:00;15.57;85.13
19536;HTU21D;9913;51.168;4.124;2022-09-09T06:39:37;15.57;85.45
19536;HTU21D;9913;51.168;4.124;2022-09-09T06:42:07;15.55;85.17
19536;HTU21D;9913;51.168;4.124;2022-09-09T06:44:54;15.56;85.80
19536;HTU21D;9913;51.168;4.124;2022-09-09T06:47:33;15.77;85.25
19536;HTU21D;9913;51.168;4.124;2022-09-09T06:50:03;15.87;85.31
19536;HTU21D;9913;51.168;4.124;2022-09-09T06:52:34;15.84;85.65
19536;HTU21D;9913;51.168;4.124;2022-09-09T06:55:03;15.60;85.95
19536;HTU21D;9913;51.168;4.124;2022-09-09T06:57:34;15.47;87.19
19536;HTU21D;9913;51.168;4.124;2022-09-09T07:00:17;15.28;88.09
19536;HTU21D;9913;51.168;4.124;2022-09-09T07:02:46;15.23;89.22
19536;HTU21D;9913;51.168;4.124;2022-09-09T07:05:15;15.22;89.60
19536;HTU21D;9913;51.168;4.124;2022-09-09T07:07:45;15.16;89.97
19536;HTU21D;9913;51.168;4.124;2022-09-09T07:10:16;15.08;90.08
19536;HTU21D;9913;51.168;4.124;2022-09-09T07:12:50;15.13;90.81
19536;HTU21D;9913;51.168;4.124;2022-09-09T07:15:21;15.11;90.11
19536;HTU21D;9913;51.168;4.124;2022-09-09T07:17:50;15.10;88.77
19536;HTU21D;9913;51.168;4.124;2022-09-09T07:20:19;15.19;88.26
19536;HTU21D;9913;51.168;4.124;2022-09-09T07:22:47;15.33;88.12
19536;HTU21D;9913;51.168;4.124;2022-09-09T07:25:15;15.45;88.05
19536;HTU21D;9913;51.168;4.124;2022-09-09T07:27:47;15.49;87.63
19536;HTU21D;9913;51.168;4.124;2022-09-09T07:30:16;15.51;87.92
19536;HTU21D;9913;51.168;4.124;2022-09-09T07:32:54;15.59;86.81
19536;HTU21D;9913;51.168;4.124;2022-09-09T07:35:24;15.83;86.11
19536;HTU21D;9913;51.168;4.124;2022-09-09T07:37:54;16.08;86.11
19536;HTU21D;9913;51.168;4.124;2022-09-09T07:40:23;16.22;85.76
19536;HTU21D;9913;51.168;4.124;2022-09-09T07:42:53;15.86;85.34
19536;HTU21D;9913;51.168;4.124;2022-09-09T07:45:22;15.68;86.54
19536;HTU21D;9913;51.168;4.124;2022-09-09T07:47:50;15.65;86.63
19536;HTU21D;9913;51.168;4.124;2022-09-09T07:50:20;15.83;86.70
19536;HTU21D;9913;51.168;4.124;2022-09-09T07:52:49;15.92;86.37
19536;HTU21D;9913;51.168;4.124;2022-09-09T07:55:17;15.85;85.90
19536;HTU21D;9913;51.168;4.124;2022-09-09T07:57:47;16.04;85.98
19536;HTU21D;9913;51.168;4.124;2022-09-09T08:00:17;16.36;85.71
19536;HTU21D;9913;51.168;4.124;2022-09-09T08:02:52;16.19;85.16
19536;HTU21D;9913;51.168;4.124;2022-09-09T08:05:21;16.22;84.70
19536;HTU21D;9913;51.168;4.124;2022-09-09T08:07:50;16.41;85.19
19536;HTU21D;9913;51.168;4.124;2022-09-09T08:10:18;16.40;84.64
19536;HTU21D;9913;51.168;4.124;2022-09-09T08:12:48;16.36;85.04
19536;HTU21D;9913;51.168;4.124;2022-09-09T08:15:38;16.36;84.39
19536;HTU21D;9913;51.168;4.124;2022-09-09T08:18:07;16.58;84.45
19536;HTU21D;9913;51.168;4.124;2022-09-09T08:20:36;16.69;84.40
19536;HTU21D;9913;51.168;4.124;2022-09-09T08:23:05;16.41;84.24
19536;HTU21D;9913;51.168;4.124;2022-09-09T08:25:34;16.32;84.87
19536;HTU21D;9913;51.168;4.124;2022-09-09T08:28:03;16.44;84.78
19536;HTU21D;9913;51.168;4.124;2022-09-09T08:30:31;16.32;84.44
19536;HTU21D;9913;51.168;4.124;2022-09-09T08:33:01;16.30;85.01
19536;HTU21D;9913;51.168;4.124;2022-09-09T08:35:29;16.35;85.37
19536;HTU21D;9913;51.168;4.124;2022-09-09T08:38:00;16.20;84.96
19536;HTU21D;9913;51.168;4.124;2022-09-09T08:40:37;16.18;85.50
19536;HTU21D;9913;51.168;4.124;2022-09-09T08:43:08;16.05;86.02
19536;HTU21D;9913;51.168;4.124;2022-09-09T08:45:45;15.96;85.43
19536;HTU21D;9913;51.168;4.124;2022-09-09T08:48:35;15.98;85.63
19536;HTU21D;9913;51.168;4.124;2022-09-09T08:51:09;15.95;85.89
19536;HTU21D;9913;51.168;4.124;2022-09-09T08:53:43;15.89;85.93
19536;HTU21D;9913;51.168;4.124;2022-09-09T08:56:16;15.91;85.65
19536;HTU21D;9913;51.168;4.124;2022-09-09T08:58:50;15.91;86.00
19536;HTU21D;9913;51.168;4.124;2022-09-09T09:01:42;15.92;85.90
19536;HTU21D;9913;51.168;4.124;2022-09-09T09:04:52;15.91;85.96
19536;HTU21D;9913;51.168;4.124;2022-09-09T09:07:31;15.90;86.18
19536;HTU21D;9913;51.168;4.124;2022-09-09T09:10:12;15.86;85.95
19536;HTU21D;9913;51.168;4.124;2022-09-09T09:13:08;15.82;86.32
19536;HTU21D;9913;51.168;4.124;2022-09-09T09:15:42;15.81;85.97
19536;HTU21D;9913;51.168;4.124;2022-09-09T09:18:13;15.84;85.50
19536;HTU21D;9913;51.168;4.124;2022-09-09T09:20:50;15.90;85.55
19536;HTU21D;9913;51.168;4.124;2022-09-09T09:23:22;15.95;85.84
19536;HTU21D;9913;51.168;4.124;2022-09-09T09:25:57;15.99;86.00
19536;HTU21D;9913;51.168;4.124;2022-09-09T09:28:30;15.99;85.35
19536;HTU21D;9913;51.168;4.124;2022-09-09T09:31:11;16.08;85.32
19536;HTU21D;9913;51.168;4.124;2022-09-09T09:33:47;16.01;85.09
19536;HTU21D;9913;51.168;4.124;2022-09-09T09:36:20;15.99;85.45
19536;HTU21D;9913;51.168;4.124;2022-09-09T09:38:54;16.06;85.37
19536;HTU21D;9913;51.168;4.124;2022-09-09T09:41:43;16.06;85.29
19536;HTU21D;9913;51.168;4.124;2022-09-09T09:44:24;16.00;85.72
19536;HTU21D;9913;51.168;4.124;2022-09-09T09:47:07;16.06;85.25
19536;HTU21D;9913;51.168;4.124;2022-09-09T09:49:36;16.34;84.84
19536;HTU21D;9913;51.168;4.124;2022-09-09T09:52:11;16.39;84.39
19536;HTU21D;9913;51.168;4.124;2022-09-09T09:54:43;16.46;84.58
19536;HTU21D;9913;51.168;4.124;2022-09-09T09:57:13;16.58;84.58
19536;HTU21D;9913;51.168;4.124;2022-09-09T09:59:46;16.71;84.09
19536;HTU21D;9913;51.168;4.124;2022-09-09T10:02:24;16.93;83.84
19536;HTU21D;9913;51.168;4.124;2022-09-09T10:05:03;17.30;83.20
19536;HTU21D;9913;51.168;4.124;2022-09-09T10:07:35;17.23;83.17
19536;HTU21D;9913;51.168;4.124;2022-09-09T10:10:05;17.31;82.94
19536;HTU21D;9913;51.168;4.124;2022-09-09T10:12:44;17.30;82.77
19536;HTU21D;9913;51.168;4.124;2022-09-09T10:15:28;17.33;82.71
19536;HTU21D;9913;51.168;4.124;2022-09-09T10:18:11;17.44;82.96
19536;HTU21D;9913;51.168;4.124;2022-09-09T10:20:51;17.37;83.08
19536;HTU21D;9913;51.168;4.124;2022-09-09T10:23:41;17.26;82.85
19536;HTU21D;9913;51.168;4.124;2022-09-09T10:26:25;17.25;82.90
19536;HTU21D;9913;51.168;4.124;2022-09-09T10:32:17;17.39;83.13
19536;HTU21D;9913;51.168;4.124;2022-09-09T10:34:55;17.34;82.83
19536;HTU21D;9913;51.168;4.124;2022-09-09T10:37:50;17.48;82.91
19536;HTU21D;9913;51.168;4.124;2022-09-09T10:40:28;17.41;83.14
19536;HTU21D;9913;51.168;4.124;2022-09-09T10:43:07;17.47;82.87
19536;HTU21D;9913;51.168;4.124;2022-09-09T10:45:45;17.53;82.38
19536;HTU21D;9913;51.168;4.124;2022-09-09T10:48:30;17.48;82.10
19536;HTU21D;9913;51.168;4.124;2022-09-09T10:51:11;17.43;82.26
19536;HTU21D;9913;51.168;4.124;2022-09-09T10:53:52;17.43;82.74
19536;HTU21D;9913;51.168;4.124;2022-09-09T10:56:23;17.58;82.52
19536;HTU21D;9913;51.168;4.124;2022-09-09T10:58:56;17.68;82.56
19536;HTU21D;9913;51.168;4.124;2022-09-09T11:01:28;17.84;81.72
19536;HTU21D;9913;51.168;4.124;2022-09-09T11:04:03;17.79;81.28
19536;HTU21D;9913;51.168;4.124;2022-09-09T11:06:39;17.61;82.07
19536;HTU21D;9913;51.168;4.124;2022-09-09T11:09:15;17.76;81.48
19536;HTU21D;9913;51.168;4.124;2022-09-09T11:11:51;17.83;82.41
19536;HTU21D;9913;51.168;4.124;2022-09-09T11:14:28;18.26;81.32
19536;HTU21D;9913;51.168;4.124;2022-09-09T11:17:08;18.44;81.30
19536;HTU21D;9913;51.168;4.124;2022-09-09T11:19:39;18.77;79.45
19536;HTU21D;9913;51.168;4.124;2022-09-09T11:22:16;18.86;79.30
19536;HTU21D;9913;51.168;4.124;2022-09-09T11:24:50;18.95;79.35
19536;HTU21D;9913;51.168;4.124;2022-09-09T11:27:24;19.00;78.79
19536;HTU21D;9913;51.168;4.124;2022-09-09T11:30:18;18.55;79.83
19536;HTU21D;9913;51.168;4.124;2022-09-09T11:33:24;18.79;78.95
19536;HTU21D;9913;51.168;4.124;2022-09-09T11:36:09;19.40;79.34
19536;HTU21D;9913;51.168;4.124;2022-09-09T11:38:45;19.28;78.51
19536;HTU21D;9913;51.168;4.124;2022-09-09T11:41:15;19.12;79.08
19536;HTU21D;9913;51.168;4.124;2022-09-09T11:43:51;18.78;78.86
19536;HTU21D;9913;51.168;4.124;2022-09-09T11:46:21;18.71;78.77
19536;HTU21D;9913;51.168;4.124;2022-09-09T11:48:59;19.23;78.11
19536;HTU21D;9913;51.168;4.124;2022-09-09T11:51:29;19.71;77.79
19536;HTU21D;9913;51.168;4.124;2022-09-09T11:53:59;19.42;78.54
19536;HTU21D;9913;51.168;4.124;2022-09-09T11:56:31;19.10;78.07
19536;HTU21D;9913;51.168;4.124;2022-09-09T11:59:03;18.97;78.34
19536;HTU21D;9913;51.168;4.124;2022-09-09T12:01:39;19.17;78.01
19536;HTU21D;9913;51.168;4.124;2022-09-09T12:04:29;19.58;77.86
19536;HTU21D;9913;51.168;4.124;2022-09-09T12:07:01;19.81;76.98
19536;HTU21D;9913;51.168;4.124;2022-09-09T12:09:39;19.52;77.04
19536;HTU21D;9913;51.168;4.124;2022-09-09T12:12:26;19.94;76.71
19536;HTU21D;9913;51.168;4.124;2022-09-09T12:14:58;19.58;76.47
19536;HTU21D;9913;51.168;4.124;2022-09-09T12:17:30;19.18;77.36
19536;HTU21D;9913;51.168;4.124;2022-09-09T12:20:08;18.94;77.53
19536;HTU21D;9913;51.168;4.124;2022-09-09T12:22:44;18.83;78.21
19536;HTU21D;9913;51.168;4.124;2022-09-09T12:25:23;18.61;78.75
19536;HTU21D;9913;51.168;4.124;2022-09-09T12:28:03;18.64;78.08
19536;HTU21D;9913;51.168;4.124;2022-09-09T12:30:42;18.92;78.11
19536;HTU21D;9913;51.168;4.124;2022-09-09T12:33:17;19.06;78.26
19536;HTU21D;9913;51.168;4.124;2022-09-09T12:35:51;18.96;77.84
19536;HTU21D;9913;51.168;4.124;2022-09-09T12:38:29;19.75;78.44
19536;HTU21D;9913;51.168;4.124;2022-09-09T12:41:00;20.63;75.55
19536;HTU21D;9913;51.168;4.124;2022-09-09T12:43:29;20.70;75.13
19536;HTU21D;9913;51.168;4.124;2022-09-09T12:46:01;20.28;74.55
19536;HTU21D;9913;51.168;4.124;2022-09-09T12:48:34;19.98;75.85
19536;HTU21D;9913;51.168;4.124;2022-09-09T12:51:21;19.85;76.63
19536;HTU21D;9913;51.168;4.124;2022-09-09T12:53:52;20.10;75.91
19536;HTU21D;9913;51.168;4.124;2022-09-09T12:56:22;19.95;75.29
19536;HTU21D;9913;51.168;4.124;2022-09-09T12:58:55;20.24;75.75
19536;HTU21D;9913;51.168;4.124;2022-09-09T13:01:27;20.73;75.87
19536;HTU21D;9913;51.168;4.124;2022-09-09T13:03:56;20.61;74.92
19536;HTU21D;9913;51.168;4.124;2022-09-09T13:06:26;20.83;75.06
19536;HTU21D;9913;51.168;4.124;2022-09-09T13:08:56;21.42;74.35
19536;HTU21D;9913;51.168;4.124;2022-09-09T13:11:28;21.22;73.44
19536;HTU21D;9913;51.168;4.124;2022-09-09T13:13:59;20.70;74.83
19536;HTU21D;9913;51.168;4.124;2022-09-09T13:16:31;20.61;73.92
19536;HTU21D;9913;51.168;4.124;2022-09-09T13:19:08;20.59;74.44
19536;HTU21D;9913;51.168;4.124;2022-09-09T13:21:38;20.32;76.37
19536;HTU21D;9913;51.168;4.124;2022-09-09T13:24:25;20.29;76.01
19536;HTU21D;9913;51.168;4.124;2022-09-09T13:26:56;20.28;75.67
19536;HTU21D;9913;51.168;4.124;2022-09-09T13:29:24;20.27;74.54
19536;HTU21D;9913;51.168;4.124;2022-09-09T13:32:03;20.35;76.37
19536;HTU21D;9913;51.168;4.124;2022-09-09T13:34:34;20.09;73.96
19536;HTU21D;9913;51.168;4.124;2022-09-09T13:37:05;20.05;74.80
19536;HTU21D;9913;51.168;4.124;2022-09-09T13:39:35;20.40;75.73
19536;HTU21D;9913;51.168;4.124;2022-09-09T13:42:05;21.09;74.67
19536;HTU21D;9913;51.168;4.124;2022-09-09T13:44:37;20.98;74.00
19536;HTU21D;9913;51.168;4.124;2022-09-09T13:47:18;21.21;72.42
19536;HTU21D;9913;51.168;4.124;2022-09-09T13:49:47;21.34;73.17
19536;HTU21D;9913;51.168;4.124;2022-09-09T13:52:17;21.34;73.12
19536;HTU21D;9913;51.168;4.124;2022-09-09T13:54:48;21.87;73.33
19536;HTU21D;9913;51.168;4.124;2022-09-09T13:57:18;21.46;72.11
19536;HTU21D;9913;51.168;4.124;2022-09-09T13:59:47;21.43;73.14
19536;HTU21D;9913;51.168;4.124;2022-09-09T14:02:33;21.74;73.38
19536;HTU21D;9913;51.168;4.124;2022-09-09T14:05:03;21.53;72.58
19536;HTU21D;9913;51.168;4.124;2022-09-09T14:07:31;21.79;74.79
19536;HTU21D;9913;51.168;4.124;2022-09-09T14:10:00;21.75;72.45
19536;HTU21D;9913;51.168;4.124;2022-09-09T14:12:28;22.19;71.72
19536;HTU21D;9913;51.168;4.124;2022-09-09T14:14:56;22.34;73.16
19536;HTU21D;9913;51.168;4.124;2022-09-09T14:17:26;21.81;71.87
19536;HTU21D;9913;51.168;4.124;2022-09-09T14:19:59;20.95;71.97
19536;HTU21D;9913;51.168;4.124;2022-09-09T14:22:27;20.68;74.21
19536;HTU21D;9913;51.168;4.124;2022-09-09T14:24:56;20.55;74.65
19536;HTU21D;9913;51.168;4.124;2022-09-09T14:27:25;20.59;73.54
19536;HTU21D;9913;51.168;4.124;2022-09-09T14:29:53;21.00;73.20
19536;HTU21D;9913;51.168;4.124;2022-09-09T14:32:22;20.80;73.18
19536;HTU21D;9913;51.168;4.124;2022-09-09T14:34:51;20.31;73.25
19536;HTU21D;9913;51.168;4.124;2022-09-09T14:37:20;19.92;74.68
19536;HTU21D;9913;51.168;4.124;2022-09-09T14:39:48;19.46;76.18
19536;HTU21D;9913;51.168;4.124;2022-09-09T14:42:18;19.11;76.24
19536;HTU21D;9913;51.168;4.124;2022-09-09T14:44:46;18.83;77.70
19536;HTU21D;9913;51.168;4.124;2022-09-09T14:47:15;18.69;77.05
19536;HTU21D;9913;51.168;4.124;2022-09-09T14:49:44;18.69;77.92
19536;HTU21D;9913;51.168;4.124;2022-09-09T14:52:13;18.68;78.72
19536;HTU21D;9913;51.168;4.124;2022-09-09T14:54:42;18.94;78.12
19536;HTU21D;9913;51.168;4.124;2022-09-09T14:57:11;19.79;76.78
19536;HTU21D;9913;51.168;4.124;2022-09-09T14:59:39;21.16;75.74
19536;HTU21D;9913;51.168;4.124;2022-09-09T15:02:08;20.84;74.22
19536;HTU21D;9913;51.168;4.124;2022-09-09T15:04:37;20.11;74.65
19536;HTU21D;9913;51.168;4.124;2022-09-09T15:07:05;19.66;75.61
19536;HTU21D;9913;51.168;4.124;2022-09-09T15:09:33;19.37;77.36
19536;HTU21D;9913;51.168;4.124;2022-09-09T15:12:05;19.25;76.99
19536;HTU21D;9913;51.168;4.124;2022-09-09T15:14:34;19.08;77.21
19536;HTU21D;9913;51.168;4.124;2022-09-09T15:17:02;18.96;77.79
19536;HTU21D;9913;51.168;4.124;2022-09-09T15:19:30;18.85;77.95
19536;HTU21D;9913;51.168;4.124;2022-09-09T15:21:59;18.68;78.93
19536;HTU21D;9913;51.168;4.124;2022-09-09T15:24:27;18.61;78.48
19536;HTU21D;9913;51.168;4.124;2022-09-09T15:26:55;18.42;78.16
19536;HTU21D;9913;51.168;4.124;2022-09-09T15:29:26;18.36;78.30
19536;HTU21D;9913;51.168;4.124;2022-09-09T15:31:55;18.13;80.89
19536;HTU21D;9913;51.168;4.124;2022-09-09T15:34:23;17.95;81.41
19536;HTU21D;9913;51.168;4.124;2022-09-09T15:36:52;17.73;82.45
19536;HTU21D;9913;51.168;4.124;2022-09-09T15:39:22;17.45;83.74
19536;HTU21D;9913;51.168;4.124;2022-09-09T15:41:50;17.30;84.41
19536;HTU21D;9913;51.168;4.124;2022-09-09T15:44:19;17.14;85.13
19536;HTU21D;9913;51.168;4.124;2022-09-09T15:46:50;17.07;86.23
19536;HTU21D;9913;51.168;4.124;2022-09-09T15:49:22;17.01;86.45
19536;HTU21D;9913;51.168;4.124;2022-09-09T15:51:53;16.87;87.24
19536;HTU21D;9913;51.168;4.124;2022-09-09T15:54:23;16.60;87.07
19536;HTU21D;9913;51.168;4.124;2022-09-09T15:56:54;16.70;88.80
19536;HTU21D;9913;51.168;4.124;2022-09-09T15:59:23;16.78;89.07
19536;HTU21D;9913;51.168;4.124;2022-09-09T16:01:54;16.91;89.09
19536;HTU21D;9913;51.168;4.124;2022-09-09T16:04:23;16.96;88.61
19536;HTU21D;9913;51.168;4.124;2022-09-09T16:06:53;17.04;87.91
19536;HTU21D;9913;51.168;4.124;2022-09-09T16:09:22;16.91;86.73
19536;HTU21D;9913;51.168;4.124;2022-09-09T16:11:50;16.84;88.03